ADDS TAF Board (Experimental) INFO Settings
IDs: Format: Expanded Condensed

KEWR - Newark Intl, NJ, US

Issued at 0831 UTC 13 Feb 2016
Updated at: 1048 UTC 13 Feb 2016
Time0951Z 13/11Z 13/12Z 13/13Z 13/14Z 13/15Z 13/16Z 13/17Z 13/18Z 13/19Z 13/20Z 13/21Z 13/22Z 13/23Z
Type OBS PRVL PRVL PRVL PRVL PRVL PRVL PRVL PRVL PRVL PRVL PRVL PRVL PRVL
VIS 10 >6 >6 >6 >6 >6 >6 >6 >6 >6 >6 >6 >6 >6
CIG -- 45 45 70 70 100 100 100 100 100 100 100 100 --
Cover SCT BKN BKN BKN BKN BKN BKN BKN BKN BKN BKN BKN BKN SCT
FltCat VFR VFR VFR VFR VFR VFR VFR VFR VFR VFR VFR VFR VFR VFR
WX -- -- -- -- -- -- -- -- -- -- -- -- -- --
WDir 250 290 290 300 300 310 310 310 310 310 310 310 310 310
WSpd 11 14 14 18 18 22 22 22 22 22 22 22 22 21
WGst -- 21 21 29 29 36 36 36 36 36 36 36 36 35
R04/22
XWnd 8 14 14 18 18 21 21 21 21 21 21 21 21 20
XGst -- 21 21 29 29 35 35 35 35 35 35 35 35 34
HWnd -8 -1 -1 1 1 5 5 5 5 5 5 5 5 5
HGst -- -2 -2 2 2 9 9 9 9 9 9 9 9 8
R11/29
XWnd -5 4 4 8 8 13 13 13 13 13 13 13 13 12
XGst -- 5 5 12 12 21 21 21 21 21 21 21 21 20
HWnd -10 -14 -14 -16 -16 -18 -18 -18 -18 -18 -18 -18 -18 -17
HGst -- -20 -20 -26 -26 -29 -29 -29 -29 -29 -29 -29 -29 -29

NOTE: TEMPO conditions in [brackets]. Keep in mind TEMPO conditions might be better (lower impact) than prevailing conditions.

Raw TAF
KEWR 130831Z 1309/1412 26010KT P6SM FEW060 SCT150
  FM131100 29014G21KT P6SM BKN045
  FM131300 30018G29KT P6SM BKN070
  FM131500 31022G36KT P6SM BKN100
  FM132300 31021G35KT P6SM SCT100
  FM140700 30017G29KT P6SM SCT140


Raw METAR
KEWR 130951Z 25011KT 10SM FEW050 SCT100 M06/M11 A2988 RMK AO2 SLP119 T10611106
KEWR 130851Z 26010KT 10SM FEW060 SCT140 M07/M11 A2988 RMK AO2 SLP117 T10671106 56015
KEWR 130751Z 25009KT 10SM FEW060 SCT140 M07/M11 A2989 RMK AO2 SLP121 T10671111

METAR Board
Radar Display
Forecast Discussion

TAF Board Legend

Potential Impact
Threat None Slight Moderate High
Visibility (sm) ≥5.1 5.1>X≥3 3>X≥1 <1
Ceiling (100 ft) ≥30.1 30.1>X≥10 10>X≥5 <5
Wind Speed (kt) <10 10≤X<20 20≤X<30 ≥30
Wind Gust (kt) <15 15≤X<25 25≤X<35 ≥35
Weather No Wx Reported VCTS,-TS,-FZRA,SN TS,FZRA +TS,+FZRA,+SN